createdAt,value
2018-12-23T00:00:30.268Z,720.99
2018-12-23T00:01:30.740Z,720.75
2018-12-23T00:02:31.206Z,721.20
2018-12-23T00:03:31.723Z,721.37
2018-12-23T00:04:32.145Z,721.63
2018-12-23T00:05:32.612Z,720.98
2018-12-23T00:06:33.079Z,720.83
2018-12-23T00:07:33.544Z,721.03
2018-12-23T00:08:34.015Z,721.29
2018-12-23T00:09:34.481Z,721.13
2018-12-23T00:10:34.949Z,721.25
2018-12-23T00:11:35.420Z,721.29
2018-12-23T00:12:35.884Z,720.89
2018-12-23T00:13:36.355Z,721.45
2018-12-23T00:14:36.821Z,721.67
2018-12-23T00:15:37.290Z,721.49
2018-12-23T00:16:37.757Z,721.20
2018-12-23T00:17:38.228Z,721.31
2018-12-23T00:18:38.692Z,720.98
2018-12-23T00:19:39.160Z,721.21
2018-12-23T00:20:39.630Z,721.21
2018-12-23T00:21:40.099Z,720.90
2018-12-23T00:22:40.566Z,721.33
2018-12-23T00:23:41.033Z,720.96
2018-12-23T00:24:41.503Z,720.32
2018-12-23T00:25:41.973Z,721.33
2018-12-23T00:26:42.436Z,721.02
2018-12-23T00:27:42.905Z,721.07
2018-12-23T00:28:43.373Z,721.24
2018-12-23T00:29:43.840Z,721.73
2018-12-23T00:30:44.308Z,721.60
2018-12-23T00:31:44.778Z,721.62
2018-12-23T00:32:45.245Z,721.60
2018-12-23T00:33:45.713Z,721.07
2018-12-23T00:34:46.180Z,721.58
2018-12-23T00:35:46.650Z,721.53
2018-12-23T00:36:47.117Z,721.31
2018-12-23T00:37:47.585Z,721.60
2018-12-23T00:38:48.052Z,721.18
2018-12-23T00:39:48.523Z,721.40
2018-12-23T00:40:48.989Z,721.41
2018-12-23T00:41:49.458Z,720.78
2018-12-23T00:42:49.925Z,721.40
2018-12-23T00:43:50.392Z,720.70
2018-12-23T00:44:50.862Z,720.63
2018-12-23T00:45:51.332Z,721.65
2018-12-23T00:46:51.795Z,721.44
2018-12-23T00:47:52.265Z,721.61
2018-12-23T00:48:52.735Z,721.10
2018-12-23T00:49:53.200Z,721.32
2018-12-23T00:50:53.675Z,720.36
2018-12-23T00:51:54.141Z,721.42
2018-12-23T00:52:54.607Z,721.32
2018-12-23T00:53:55.073Z,721.68
2018-12-23T00:54:55.540Z,721.63
2018-12-23T00:55:56.012Z,721.39
2018-12-23T00:56:56.478Z,721.55
2018-12-23T00:57:56.950Z,721.21
2018-12-23T00:58:57.415Z,721.12
2018-12-23T00:59:57.882Z,720.95
2018-12-23T01:00:58.348Z,721.08
2018-12-23T01:01:58.817Z,721.82
2018-12-23T01:02:59.285Z,721.71
2018-12-23T01:03:59.751Z,721.57
2018-12-23T01:05:00.220Z,721.79
2018-12-23T01:06:00.690Z,720.95
2018-12-23T01:07:01.156Z,721.32
2018-12-23T01:08:01.623Z,721.34
2018-12-23T01:09:02.092Z,721.15
2018-12-23T01:10:02.564Z,720.89
2018-12-23T01:11:03.028Z,721.01
2018-12-23T01:12:03.495Z,721.38
2018-12-23T01:13:03.963Z,721.00
2018-12-23T01:14:04.432Z,721.04
2018-12-23T01:15:04.899Z,721.36
2018-12-23T01:16:05.368Z,721.34
2018-12-23T01:17:05.838Z,720.72
2018-12-23T01:18:06.302Z,720.41
2018-12-23T01:19:06.821Z,720.73
2018-12-23T01:20:07.237Z,720.91
2018-12-23T01:21:07.706Z,721.38
2018-12-23T01:22:08.176Z,721.39
2018-12-23T01:23:08.641Z,720.82
2018-12-23T01:24:09.110Z,721.59
2018-12-23T01:25:09.576Z,721.37
2018-12-23T01:26:10.046Z,721.03
2018-12-23T01:27:10.511Z,721.52
2018-12-23T01:28:10.980Z,721.46
2018-12-23T01:29:11.449Z,721.72
2018-12-23T01:30:11.915Z,721.79
2018-12-23T01:31:12.386Z,721.43
2018-12-23T01:32:12.851Z,721.71
2018-12-23T01:33:13.319Z,721.63
2018-12-23T01:34:13.787Z,721.28
2018-12-23T01:35:14.257Z,720.77
2018-12-23T01:36:14.723Z,721.81
2018-12-23T01:37:15.191Z,721.84
2018-12-23T01:38:15.659Z,721.99
2018-12-23T01:39:16.127Z,721.85
2018-12-23T01:40:16.593Z,721.72
2018-12-23T01:41:17.062Z,721.87
2018-12-23T01:42:17.529Z,722.12
2018-12-23T01:43:17.998Z,721.99
2018-12-23T01:44:18.466Z,722.08
2018-12-23T01:45:18.932Z,721.89
2018-12-23T01:46:19.402Z,722.16
2018-12-23T01:47:19.874Z,722.23
2018-12-23T01:48:20.336Z,721.84
2018-12-23T01:49:20.803Z,721.77
2018-12-23T01:50:21.272Z,721.88
2018-12-23T01:51:21.738Z,722.03
2018-12-23T01:52:22.206Z,721.95
2018-12-23T01:53:22.676Z,721.68
2018-12-23T01:54:23.145Z,721.85
2018-12-23T01:55:23.612Z,722.18
2018-12-23T01:56:24.079Z,721.92
2018-12-23T01:57:24.547Z,721.40
2018-12-23T01:58:25.014Z,722.03
2018-12-23T01:59:25.481Z,721.82
2018-12-23T02:00:25.953Z,722.05
2018-12-23T02:01:26.420Z,721.81
2018-12-23T02:02:26.885Z,721.80
2018-12-23T02:03:27.354Z,721.68
2018-12-23T02:04:28.022Z,722.12
2018-12-23T02:05:28.289Z,721.92
2018-12-23T02:06:28.761Z,722.11
2018-12-23T02:07:29.224Z,721.68
2018-12-23T02:08:29.694Z,722.06
2018-12-23T02:09:30.159Z,722.08
2018-12-23T02:10:30.628Z,722.12
2018-12-23T02:11:31.093Z,722.05
2018-12-23T02:12:31.562Z,722.13
2018-12-23T02:13:32.031Z,722.41
2018-12-23T02:14:32.498Z,722.18
2018-12-23T02:15:32.967Z,722.33
2018-12-23T02:16:33.434Z,722.14
2018-12-23T02:17:33.902Z,722.41
2018-12-23T02:18:34.371Z,722.31
2018-12-23T02:19:34.837Z,721.93
2018-12-23T02:20:35.306Z,722.19
2018-12-23T02:21:35.772Z,722.45
2018-12-23T02:22:36.243Z,722.27
2018-12-23T02:23:36.709Z,722.39
2018-12-23T02:24:37.177Z,722.21
2018-12-23T02:25:37.645Z,722.48
2018-12-23T02:26:38.113Z,722.32
2018-12-23T02:27:38.580Z,722.20
2018-12-23T02:28:39.048Z,722.43
2018-12-23T02:29:39.516Z,722.57
2018-12-23T02:30:39.986Z,722.36
2018-12-23T02:31:40.450Z,722.49
2018-12-23T02:32:40.919Z,722.35
2018-12-23T02:33:41.388Z,722.29
2018-12-23T02:34:41.854Z,722.03
2018-12-23T02:35:42.323Z,722.28
2018-12-23T02:36:42.790Z,722.23
2018-12-23T02:37:43.260Z,722.15
2018-12-23T02:38:43.737Z,722.39
2018-12-23T02:39:44.194Z,722.24
2018-12-23T02:40:44.662Z,722.16
2018-12-23T02:41:45.131Z,722.07
2018-12-23T02:42:45.599Z,722.19
2018-12-23T02:43:46.067Z,722.16
2018-12-23T02:44:46.540Z,722.10
2018-12-23T02:45:47.001Z,722.13
2018-12-23T02:46:47.470Z,721.94
2018-12-23T02:47:47.941Z,721.94
2018-12-23T02:48:48.405Z,721.87
2018-12-23T02:49:48.875Z,721.99
2018-12-23T02:50:49.343Z,721.96
2018-12-23T02:51:49.808Z,722.13
2018-12-23T02:52:50.277Z,722.03
2018-12-23T02:53:50.746Z,722.19
2018-12-23T02:54:51.213Z,721.83
2018-12-23T02:55:51.682Z,721.84
2018-12-23T02:56:52.147Z,722.11
2018-12-23T02:57:52.616Z,722.19
2018-12-23T02:58:53.087Z,721.97
2018-12-23T02:59:53.552Z,721.99
2018-12-23T03:00:54.023Z,721.96
2018-12-23T03:01:54.492Z,721.99
2018-12-23T03:02:54.959Z,722.06
2018-12-23T03:03:55.424Z,722.13
2018-12-23T03:04:55.894Z,721.95
2018-12-23T03:06:05.426Z,722.09
2018-12-23T03:06:56.830Z,722.13
2018-12-23T03:07:57.296Z,722.30
2018-12-23T03:08:57.764Z,722.04
2018-12-23T03:09:58.232Z,722.34
2018-12-23T03:10:58.703Z,722.18
2018-12-23T03:11:59.168Z,722.36
2018-12-23T03:12:59.635Z,722.20
2018-12-23T03:14:00.104Z,722.29
2018-12-23T03:15:00.572Z,722.22
2018-12-23T03:16:01.039Z,722.10
2018-12-23T03:17:01.505Z,722.14
2018-12-23T03:18:01.975Z,722.17
2018-12-23T03:19:02.443Z,722.13
2018-12-23T03:20:02.910Z,722.28
2018-12-23T03:21:03.388Z,722.13
2018-12-23T03:22:03.889Z,722.00
2018-12-23T03:23:04.389Z,722.25
2018-12-23T03:24:04.793Z,722.16
2018-12-23T03:25:05.249Z,721.97
2018-12-23T03:26:05.716Z,722.54
2018-12-23T03:27:06.184Z,722.03
2018-12-23T03:28:06.651Z,722.15
2018-12-23T03:29:07.122Z,722.29
2018-12-23T03:30:07.588Z,722.28
2018-12-23T03:31:08.057Z,722.16
2018-12-23T03:32:08.577Z,722.20
2018-12-23T03:33:09.007Z,722.15
2018-12-23T03:34:09.459Z,722.06
2018-12-23T03:35:09.977Z,721.92
2018-12-23T03:36:14.887Z,722.21
2018-12-23T03:37:10.864Z,722.30
2018-12-23T03:38:11.330Z,722.24
2018-12-23T03:39:11.796Z,722.00
2018-12-23T03:40:12.271Z,721.45
2018-12-23T03:41:12.733Z,721.80
2018-12-23T03:42:13.200Z,722.27
2018-12-23T03:43:13.669Z,722.22
2018-12-23T03:44:14.136Z,722.05
2018-12-23T03:45:14.603Z,721.88
2018-12-23T03:46:15.071Z,721.99
2018-12-23T03:47:15.554Z,721.80
2018-12-23T03:48:16.006Z,722.20
2018-12-23T03:49:16.474Z,722.30
2018-12-23T03:50:16.943Z,722.31
2018-12-23T03:51:17.412Z,721.84
2018-12-23T03:52:17.877Z,722.16
2018-12-23T03:53:18.347Z,722.20
2018-12-23T03:54:18.816Z,722.35
2018-12-23T03:55:19.283Z,722.10
2018-12-23T03:56:19.748Z,722.17
2018-12-23T03:57:20.217Z,722.59
2018-12-23T03:58:20.684Z,722.22
2018-12-23T03:59:21.152Z,722.40
2018-12-23T04:00:21.621Z,722.49
2018-12-23T04:01:22.089Z,722.27
2018-12-23T04:02:22.556Z,722.27
2018-12-23T04:03:23.036Z,722.10
2018-12-23T04:04:23.490Z,722.27
2018-12-23T04:05:24.015Z,722.21
2018-12-23T04:06:25.041Z,722.25
2018-12-23T04:07:24.896Z,722.12
2018-12-23T04:08:25.363Z,722.24
2018-12-23T04:09:25.834Z,722.23
2018-12-23T04:10:26.300Z,722.40
2018-12-23T04:11:26.780Z,721.85
2018-12-23T04:12:27.233Z,722.43
2018-12-23T04:13:27.702Z,722.13
2018-12-23T04:14:28.169Z,722.12
2018-12-23T04:15:28.643Z,722.05
2018-12-23T04:16:29.105Z,722.29
2018-12-23T04:17:29.574Z,721.81
2018-12-23T04:18:30.040Z,721.97
2018-12-23T04:19:30.507Z,722.05
2018-12-23T04:20:30.977Z,721.89
2018-12-23T04:21:31.446Z,722.36
2018-12-23T04:22:31.910Z,722.22
2018-12-23T04:23:32.381Z,722.27
2018-12-23T04:24:32.847Z,721.98
2018-12-23T04:25:33.315Z,721.85
2018-12-23T04:26:33.815Z,722.23
2018-12-23T04:27:34.251Z,722.21
2018-12-23T04:28:34.721Z,722.26
2018-12-23T04:29:35.186Z,722.15
2018-12-23T04:30:35.654Z,722.21
2018-12-23T04:31:36.132Z,722.07
2018-12-23T04:32:36.590Z,722.40
2018-12-23T04:33:37.057Z,722.29
2018-12-23T04:34:37.525Z,722.28
2018-12-23T04:35:37.993Z,722.35
2018-12-23T04:36:38.461Z,722.22
2018-12-23T04:37:38.927Z,722.07
2018-12-23T04:38:39.405Z,721.94
2018-12-23T04:39:39.863Z,722.06
2018-12-23T04:40:40.331Z,722.36
2018-12-23T04:41:40.799Z,722.21
2018-12-23T04:42:41.267Z,722.01
2018-12-23T04:43:41.734Z,722.15
2018-12-23T04:44:42.202Z,722.04
2018-12-23T04:45:42.673Z,722.15
2018-12-23T04:46:43.139Z,722.21
2018-12-23T04:47:43.605Z,722.30
2018-12-23T04:48:44.074Z,722.23
2018-12-23T04:49:44.543Z,722.42
2018-12-23T04:50:45.010Z,722.38
2018-12-23T04:51:45.482Z,722.44
2018-12-23T04:52:45.944Z,722.34
2018-12-23T04:53:46.412Z,722.29
2018-12-23T04:54:46.883Z,722.27
2018-12-23T04:55:47.353Z,722.32
2018-12-23T04:56:47.818Z,722.46
2018-12-23T04:57:48.285Z,722.29
2018-12-23T04:58:48.753Z,722.38
2018-12-23T04:59:49.222Z,722.35
2018-12-23T05:00:49.743Z,722.34
2018-12-23T05:01:50.153Z,722.37
2018-12-23T05:02:50.623Z,722.36
2018-12-23T05:03:51.091Z,722.38
2018-12-23T05:04:51.557Z,722.43
2018-12-23T05:05:52.030Z,722.30
2018-12-23T05:06:52.494Z,722.20
2018-12-23T05:07:53.024Z,722.46
2018-12-23T05:08:53.431Z,722.16
2018-12-23T05:09:53.899Z,722.33
2018-12-23T05:10:54.367Z,722.24
2018-12-23T05:11:54.837Z,722.17
2018-12-23T05:12:55.305Z,722.39
2018-12-23T05:13:55.772Z,722.44
2018-12-23T05:14:56.238Z,722.30
2018-12-23T05:15:56.704Z,722.21
2018-12-23T05:16:57.174Z,722.41
2018-12-23T05:17:57.642Z,722.20
2018-12-23T05:18:58.113Z,722.49
2018-12-23T05:19:58.577Z,722.35
2018-12-23T05:20:59.043Z,722.38
2018-12-23T05:21:59.512Z,722.34
2018-12-23T05:22:59.982Z,722.41
2018-12-23T05:24:00.450Z,722.36
2018-12-23T05:25:00.919Z,722.61
2018-12-23T05:26:01.383Z,722.52
2018-12-23T05:27:01.852Z,722.53
2018-12-23T05:28:02.322Z,722.38
2018-12-23T05:29:02.786Z,722.46
2018-12-23T05:30:03.256Z,722.56
2018-12-23T05:31:03.803Z,722.49
2018-12-23T05:32:04.191Z,722.58
2018-12-23T05:33:04.660Z,722.68
2018-12-23T05:34:05.133Z,722.50
2018-12-23T05:35:05.596Z,722.58
2018-12-23T05:36:06.063Z,722.29
2018-12-23T05:37:06.531Z,722.46
2018-12-23T05:38:07.000Z,722.75
2018-12-23T05:39:07.466Z,722.43
2018-12-23T05:40:07.934Z,722.39
2018-12-23T05:41:08.403Z,722.15
2018-12-23T05:42:08.871Z,722.36
2018-12-23T05:43:09.339Z,722.17
2018-12-23T05:44:09.807Z,722.25
2018-12-23T05:45:10.274Z,722.32
2018-12-23T05:46:10.742Z,722.22
2018-12-23T05:47:11.210Z,722.48
2018-12-23T05:48:11.680Z,722.45
2018-12-23T05:49:12.145Z,722.49
2018-12-23T05:50:12.614Z,722.40
2018-12-23T05:51:13.081Z,722.53
2018-12-23T05:52:13.549Z,722.53
2018-12-23T05:53:14.017Z,722.79
2018-12-23T05:54:14.485Z,722.77
2018-12-23T05:55:14.952Z,722.58
2018-12-23T05:56:15.422Z,722.75
2018-12-23T05:57:15.889Z,722.51
2018-12-23T05:58:16.356Z,722.49
2018-12-23T05:59:16.826Z,722.42
2018-12-23T06:00:17.292Z,722.37
2018-12-23T06:01:17.761Z,722.49
2018-12-23T06:02:18.229Z,722.53
2018-12-23T06:03:18.697Z,722.33
2018-12-23T06:04:19.167Z,722.31
2018-12-23T06:05:19.635Z,722.55
2018-12-23T06:06:20.102Z,722.42
2018-12-23T06:07:20.569Z,722.47
2018-12-23T06:08:21.037Z,722.47
2018-12-23T06:09:21.505Z,722.56
2018-12-23T06:10:21.971Z,722.81
2018-12-23T06:11:22.443Z,722.59
2018-12-23T06:12:22.909Z,722.68
2018-12-23T06:13:23.377Z,722.52
2018-12-23T06:14:23.845Z,722.77
2018-12-23T06:15:24.314Z,722.49
2018-12-23T06:16:24.781Z,722.81
2018-12-23T06:17:25.247Z,722.62
2018-12-23T06:18:25.714Z,722.45
2018-12-23T06:19:26.183Z,722.78
2018-12-23T06:20:26.656Z,722.40
2018-12-23T06:21:27.119Z,722.49
2018-12-23T06:22:27.590Z,722.40
2018-12-23T06:23:28.055Z,722.43
2018-12-23T06:24:28.530Z,722.35
2018-12-23T06:25:28.992Z,722.52
2018-12-23T06:26:29.460Z,722.50
2018-12-23T06:27:29.927Z,722.57
2018-12-23T06:28:30.397Z,722.44
2018-12-23T06:29:30.863Z,722.30
2018-12-23T06:30:31.331Z,722.41
2018-12-23T06:31:31.798Z,722.54
2018-12-23T06:32:32.268Z,722.31
2018-12-23T06:33:32.732Z,722.74
2018-12-23T06:34:33.202Z,722.68
2018-12-23T06:35:33.670Z,722.58
2018-12-23T06:36:34.188Z,722.49
2018-12-23T06:37:34.604Z,722.70
2018-12-23T06:38:35.075Z,722.71
2018-12-23T06:39:35.541Z,722.56
2018-12-23T06:40:36.008Z,722.93
2018-12-23T06:41:36.477Z,722.57
2018-12-23T06:42:36.944Z,722.85
2018-12-23T06:43:37.413Z,722.82
2018-12-23T06:44:37.882Z,722.90
2018-12-23T06:45:38.347Z,722.85
2018-12-23T06:46:38.817Z,722.47
2018-12-23T06:47:39.284Z,722.53
2018-12-23T06:48:39.755Z,722.71
2018-12-23T06:49:40.220Z,722.40
2018-12-23T06:50:40.687Z,722.29
2018-12-23T06:51:41.207Z,722.75
2018-12-23T06:52:41.623Z,722.75
2018-12-23T06:53:42.089Z,722.49
2018-12-23T06:54:42.560Z,722.74
2018-12-23T06:55:43.029Z,722.69
2018-12-23T06:56:43.499Z,722.60
2018-12-23T06:57:43.961Z,722.17
2018-12-23T06:58:44.432Z,722.64
2018-12-23T06:59:44.898Z,722.51
2018-12-23T07:00:45.368Z,722.17
2018-12-23T07:01:45.834Z,722.78
2018-12-23T07:02:46.304Z,722.47
2018-12-23T07:03:46.772Z,722.53
2018-12-23T07:04:47.242Z,722.41
2018-12-23T07:05:47.705Z,722.15
2018-12-23T07:06:48.176Z,722.43
2018-12-23T07:07:48.641Z,722.85
2018-12-23T07:08:49.114Z,722.71
2018-12-23T07:09:49.578Z,722.87
2018-12-23T07:10:50.047Z,722.45
2018-12-23T07:11:50.516Z,722.81
2018-12-23T07:12:50.982Z,722.64
2018-12-23T07:13:51.451Z,722.60
2018-12-23T07:14:51.922Z,722.74
2018-12-23T07:15:52.386Z,722.59
2018-12-23T07:16:52.854Z,722.94
2018-12-23T07:17:53.322Z,722.58
2018-12-23T07:18:53.791Z,722.78
2018-12-23T07:19:54.263Z,722.79
2018-12-23T07:20:55.387Z,722.91
2018-12-23T07:21:55.196Z,722.65
2018-12-23T07:22:55.664Z,722.83
2018-12-23T07:23:56.131Z,722.86
2018-12-23T07:24:56.598Z,723.06
2018-12-23T07:25:57.066Z,722.98
2018-12-23T07:26:57.533Z,722.89
2018-12-23T07:27:58.002Z,722.81
2018-12-23T07:28:58.470Z,722.60
2018-12-23T07:29:58.940Z,722.70
2018-12-23T07:30:59.405Z,722.82
2018-12-23T07:31:59.879Z,722.81
2018-12-23T07:33:00.342Z,722.64
2018-12-23T07:34:00.810Z,721.87
2018-12-23T07:35:01.280Z,722.25
2018-12-23T07:36:01.745Z,722.70
2018-12-23T07:37:02.264Z,722.72
2018-12-23T07:38:02.681Z,722.73
2018-12-23T07:39:03.153Z,722.86
2018-12-23T07:40:03.617Z,722.74
2018-12-23T07:41:04.085Z,722.83
2018-12-23T07:42:04.551Z,722.68
2018-12-23T07:43:05.032Z,722.86
2018-12-23T07:44:05.488Z,723.02
2018-12-23T07:45:05.955Z,723.03
2018-12-23T07:46:06.422Z,722.86
2018-12-23T07:47:06.890Z,722.80
2018-12-23T07:48:07.357Z,722.19
2018-12-23T07:49:07.827Z,722.82
2018-12-23T07:50:08.292Z,722.85
2018-12-23T07:51:08.760Z,723.04
2018-12-23T07:52:09.229Z,722.60
2018-12-23T07:53:09.698Z,722.23
2018-12-23T07:54:10.166Z,722.41
2018-12-23T07:55:10.631Z,722.92
2018-12-23T07:56:11.101Z,722.82
2018-12-23T07:57:11.569Z,722.70
2018-12-23T07:58:12.035Z,722.48
2018-12-23T07:59:12.503Z,722.74
2018-12-23T08:00:12.973Z,722.84
2018-12-23T08:01:13.438Z,723.04
2018-12-23T08:02:13.908Z,722.56
2018-12-23T08:03:14.374Z,723.01
2018-12-23T08:04:14.844Z,723.12
2018-12-23T08:05:15.311Z,723.04
2018-12-23T08:06:15.797Z,722.86
2018-12-23T08:07:16.245Z,723.15
2018-12-23T08:08:16.716Z,722.91
2018-12-23T08:09:17.182Z,722.85
2018-12-23T08:10:17.653Z,723.02
2018-12-23T08:11:18.116Z,723.11
2018-12-23T08:12:18.690Z,722.74
2018-12-23T08:13:19.051Z,722.98
2018-12-23T08:14:19.520Z,722.88
2018-12-23T08:15:19.988Z,723.19
2018-12-23T08:16:20.457Z,723.02
2018-12-23T08:17:20.923Z,723.00
2018-12-23T08:18:21.389Z,723.22
2018-12-23T08:19:21.901Z,723.17
2018-12-23T08:20:22.330Z,723.06
2018-12-23T08:21:22.794Z,723.23
2018-12-23T08:22:23.260Z,723.15
2018-12-23T08:23:23.729Z,723.17
2018-12-23T08:24:24.195Z,723.28
2018-12-23T08:25:24.665Z,723.23
2018-12-23T08:26:25.132Z,723.06
2018-12-23T08:27:25.599Z,723.28
2018-12-23T08:28:26.068Z,723.11
2018-12-23T08:29:26.537Z,723.00
2018-12-23T08:30:27.002Z,722.97
2018-12-23T08:31:27.471Z,723.27
2018-12-23T08:32:27.938Z,723.47
2018-12-23T08:33:28.405Z,723.44
2018-12-23T08:34:28.874Z,723.42
2018-12-23T08:35:29.343Z,723.34
2018-12-23T08:36:29.810Z,723.45
2018-12-23T08:37:30.278Z,723.41
2018-12-23T08:38:30.745Z,723.10
2018-12-23T08:39:31.212Z,723.41
2018-12-23T08:40:31.679Z,723.21
2018-12-23T08:41:33.050Z,723.19
2018-12-23T08:42:32.616Z,723.20
2018-12-23T08:43:33.085Z,723.13
2018-12-23T08:44:33.551Z,723.17
2018-12-23T08:45:34.020Z,722.97
2018-12-23T08:46:39.154Z,722.98
2018-12-23T08:47:34.954Z,723.23
2018-12-23T08:48:35.420Z,723.33
2018-12-23T08:49:35.891Z,723.54
2018-12-23T08:50:36.358Z,723.35
2018-12-23T08:51:36.827Z,723.15
2018-12-23T08:52:37.295Z,723.09
2018-12-23T08:53:37.761Z,723.38
2018-12-23T08:54:38.227Z,723.37
2018-12-23T08:55:38.694Z,723.43
2018-12-23T08:56:39.162Z,723.30
2018-12-23T08:57:39.632Z,723.38
2018-12-23T08:58:40.099Z,722.73
2018-12-23T08:59:40.567Z,722.84
2018-12-23T09:00:41.033Z,723.11
2018-12-23T09:01:41.502Z,722.94
2018-12-23T09:02:41.968Z,723.28
2018-12-23T09:03:42.437Z,722.83
2018-12-23T09:04:42.905Z,723.25
2018-12-23T09:05:43.373Z,722.70
2018-12-23T09:06:43.840Z,723.35
2018-12-23T09:07:44.358Z,722.94
2018-12-23T09:08:44.776Z,723.09
2018-12-23T09:09:45.244Z,723.09
2018-12-23T09:10:45.711Z,722.88
2018-12-23T09:11:46.179Z,723.24
2018-12-23T09:12:46.646Z,723.11
2018-12-23T09:13:47.116Z,722.92
2018-12-23T09:14:47.580Z,723.05
2018-12-23T09:15:48.051Z,723.14
2018-12-23T09:16:48.527Z,723.34
2018-12-23T09:17:48.986Z,722.69
2018-12-23T09:18:49.451Z,722.94
2018-12-23T09:19:49.922Z,723.03
2018-12-23T09:20:50.389Z,723.08
2018-12-23T09:21:50.858Z,722.85
2018-12-23T09:22:51.376Z,722.63
2018-12-23T09:23:51.794Z,723.06
2018-12-23T09:24:52.258Z,722.79
2018-12-23T09:25:52.731Z,722.79
2018-12-23T09:26:53.194Z,722.49
2018-12-23T09:27:53.663Z,723.13
2018-12-23T09:28:54.138Z,723.10
2018-12-23T09:29:54.599Z,723.05
2018-12-23T09:30:55.066Z,722.96
2018-12-23T09:31:55.533Z,722.68
2018-12-23T09:32:56.005Z,722.53
2018-12-23T09:33:56.471Z,723.05
2018-12-23T09:34:56.936Z,723.12
2018-12-23T09:35:57.405Z,723.04
2018-12-23T09:36:57.873Z,723.12
2018-12-23T09:38:01.640Z,723.30
2018-12-23T09:38:58.807Z,722.97
2018-12-23T09:39:59.339Z,722.86
2018-12-23T09:40:59.745Z,722.31
2018-12-23T09:42:00.212Z,722.88
2018-12-23T09:43:00.730Z,722.80
2018-12-23T09:44:01.146Z,723.11
2018-12-23T09:45:01.614Z,722.67
2018-12-23T09:46:02.083Z,722.93
2018-12-23T09:47:02.551Z,722.55
2018-12-23T09:48:03.016Z,722.97
2018-12-23T09:49:03.492Z,722.83
2018-12-23T09:50:03.954Z,722.74
2018-12-23T09:51:04.419Z,723.27
2018-12-23T09:52:04.887Z,722.26
2018-12-23T09:53:05.407Z,723.03
2018-12-23T09:54:05.825Z,723.12
2018-12-23T09:55:06.293Z,722.83
2018-12-23T09:56:06.763Z,723.32
2018-12-23T09:57:07.228Z,723.16
2018-12-23T09:58:07.694Z,723.12
2018-12-23T09:59:08.164Z,723.09
2018-12-23T10:00:08.635Z,723.19
2018-12-23T10:01:09.099Z,723.09
2018-12-23T10:02:09.565Z,723.14
2018-12-23T10:03:10.037Z,723.29
2018-12-23T10:04:10.500Z,722.86
2018-12-23T10:05:10.972Z,722.98
2018-12-23T10:06:11.436Z,723.04
2018-12-23T10:07:11.906Z,723.09
2018-12-23T10:08:12.429Z,723.24
2018-12-23T10:09:12.840Z,723.41
2018-12-23T10:10:13.308Z,723.32
2018-12-23T10:11:13.774Z,723.05
2018-12-23T10:12:14.243Z,722.96
2018-12-23T10:13:14.711Z,723.09
2018-12-23T10:14:15.178Z,722.96
2018-12-23T10:15:15.645Z,722.90
2018-12-23T10:16:16.114Z,722.95
2018-12-23T10:17:16.584Z,722.48
2018-12-23T10:18:17.051Z,723.09
2018-12-23T10:19:17.517Z,722.51
2018-12-23T10:20:17.987Z,722.45
2018-12-23T10:21:18.457Z,722.84
2018-12-23T10:22:18.921Z,722.67
2018-12-23T10:23:19.440Z,723.03
2018-12-23T10:24:19.858Z,722.93
2018-12-23T10:25:20.334Z,722.71
2018-12-23T10:26:20.793Z,722.82
2018-12-23T10:27:21.260Z,722.84
2018-12-23T10:28:21.727Z,722.82
2018-12-23T10:29:22.198Z,722.95
2018-12-23T10:30:22.663Z,723.00
2018-12-23T10:31:23.133Z,722.92
2018-12-23T10:32:23.598Z,722.86
2018-12-23T10:33:24.066Z,722.84
2018-12-23T10:34:24.537Z,723.10
2018-12-23T10:35:25.001Z,722.98
2018-12-23T10:36:25.470Z,722.95
2018-12-23T10:37:25.937Z,722.72
2018-12-23T10:38:26.408Z,722.69
2018-12-23T10:39:26.874Z,722.99
2018-12-23T10:40:27.340Z,722.94
2018-12-23T10:41:27.808Z,723.03
2018-12-23T10:42:28.276Z,722.72
2018-12-23T10:43:28.742Z,722.75
2018-12-23T10:44:29.211Z,722.48
2018-12-23T10:45:29.679Z,722.85
2018-12-23T10:46:30.145Z,722.86
2018-12-23T10:47:30.612Z,722.73
2018-12-23T10:48:31.080Z,722.42
2018-12-23T10:49:31.549Z,722.59
2018-12-23T10:50:32.018Z,722.45
2018-12-23T10:51:32.486Z,722.13
2018-12-23T10:52:32.952Z,721.91
2018-12-23T10:53:33.472Z,722.01
2018-12-23T10:54:33.889Z,722.49
2018-12-23T10:55:34.357Z,721.98
2018-12-23T10:56:34.823Z,722.47
2018-12-23T10:57:35.290Z,722.21
2018-12-23T10:58:35.760Z,722.48
2018-12-23T10:59:36.229Z,722.56
2018-12-23T11:00:36.695Z,722.36
2018-12-23T11:01:37.164Z,722.47
2018-12-23T11:02:37.631Z,722.34
2018-12-23T11:03:38.097Z,722.24
2018-12-23T11:04:38.566Z,722.40
2018-12-23T11:05:39.033Z,721.93
2018-12-23T11:06:39.502Z,722.32
2018-12-23T11:07:39.967Z,722.37
2018-12-23T11:08:40.440Z,722.40
2018-12-23T11:09:40.906Z,722.39
2018-12-23T11:10:41.374Z,722.41
2018-12-23T11:11:41.839Z,722.41
2018-12-23T11:12:42.310Z,722.18
2018-12-23T11:13:42.774Z,722.36
2018-12-23T11:14:43.246Z,722.14
2018-12-23T11:15:43.713Z,722.35
2018-12-23T11:16:44.181Z,721.58
2018-12-23T11:17:44.646Z,722.03
2018-12-23T11:18:45.114Z,722.13
2018-12-23T11:19:45.585Z,721.94
2018-12-23T11:20:46.049Z,721.91
2018-12-23T11:21:46.516Z,721.97
2018-12-23T11:22:46.987Z,721.66
2018-12-23T11:23:47.505Z,721.91
2018-12-23T11:24:47.923Z,722.14
2018-12-23T11:25:48.388Z,722.13
2018-12-23T11:26:48.857Z,721.74
2018-12-23T11:27:49.324Z,722.04
2018-12-23T11:28:49.791Z,721.94
2018-12-23T11:29:50.259Z,721.95
2018-12-23T11:30:50.726Z,721.73
2018-12-23T11:31:51.194Z,722.13
2018-12-23T11:32:51.662Z,722.09
2018-12-23T11:33:52.131Z,722.10
2018-12-23T11:34:52.600Z,722.24
2018-12-23T11:35:53.068Z,722.16
2018-12-23T11:36:53.534Z,722.17
2018-12-23T11:37:54.000Z,722.11
2018-12-23T11:38:54.476Z,722.18
2018-12-23T11:39:54.936Z,722.20
2018-12-23T11:40:55.406Z,722.12
2018-12-23T11:41:55.874Z,722.05
2018-12-23T11:42:56.341Z,722.05
2018-12-23T11:43:56.806Z,722.05
2018-12-23T11:44:57.276Z,722.10
2018-12-23T11:45:57.745Z,722.14
2018-12-23T11:46:58.210Z,722.10
2018-12-23T11:47:58.678Z,722.04
2018-12-23T11:48:59.147Z,721.94
2018-12-23T11:49:59.615Z,721.92
2018-12-23T11:51:00.083Z,721.66
2018-12-23T11:52:00.549Z,721.78
2018-12-23T11:53:01.017Z,721.68
2018-12-23T11:54:01.537Z,722.04
2018-12-23T11:55:01.959Z,722.06
2018-12-23T11:56:02.418Z,721.82
2018-12-23T11:57:02.889Z,721.88
2018-12-23T11:58:03.357Z,721.69
2018-12-23T11:59:03.823Z,721.41
2018-12-23T12:00:04.291Z,721.73
2018-12-23T12:01:04.758Z,721.70
2018-12-23T12:02:05.305Z,721.66
2018-12-23T12:03:05.693Z,721.71
2018-12-23T12:04:06.160Z,721.70
2018-12-23T12:05:06.629Z,721.75
2018-12-23T12:06:07.097Z,721.68
2018-12-23T12:07:07.564Z,721.61
2018-12-23T12:08:08.031Z,721.63
2018-12-23T12:09:08.502Z,721.75
2018-12-23T12:10:08.969Z,721.71
2018-12-23T12:11:09.434Z,721.61
2018-12-23T12:12:09.906Z,721.62
2018-12-23T12:13:10.370Z,721.84
2018-12-23T12:14:10.838Z,721.67
2018-12-23T12:15:11.307Z,721.53
2018-12-23T12:16:11.775Z,721.61
2018-12-23T12:17:12.241Z,721.53
2018-12-23T12:18:12.712Z,721.46
2018-12-23T12:19:13.183Z,721.59
2018-12-23T12:20:13.644Z,721.54
2018-12-23T12:21:14.113Z,721.49
2018-12-23T12:22:14.583Z,721.48
2018-12-23T12:23:15.047Z,721.41
2018-12-23T12:24:15.565Z,721.34
2018-12-23T12:25:15.983Z,721.36
2018-12-23T12:26:16.451Z,721.40
2018-12-23T12:27:16.919Z,721.19
2018-12-23T12:28:17.385Z,721.32
2018-12-23T12:29:17.854Z,721.35
2018-12-23T12:30:18.323Z,721.35
2018-12-23T12:31:18.788Z,721.21
2018-12-23T12:32:19.263Z,721.33
2018-12-23T12:33:19.725Z,721.12
2018-12-23T12:34:20.193Z,721.43